EWG83FA EDDM-EDDL
Flight info
| Callsign | EWG83FA |
|---|---|
| Flight time | N/A |
| Altitude | 28000 |
| Route | GIVMI6Q GIVMI Y101 INBED DCT REKDI DCT LOHRE Z850 ARPEG/N0369F240 Z850 ADEMI T854 DOMUX DOMUX1A |
| Aircraft | A320/M-SDE3FGHIRWY/LB1 |
Departure
| Time | 2026-05-01 15:33 |
|---|---|
| Airport | Munich Airport (EDDM) |
Arrival
| Time | N/A |
|---|---|
| Airport | Düsseldorf Airport (EDDL) |
| Time | Latitude | Longitude | Altitude | Speed | Heading |
|---|---|---|---|---|---|
| 2026-05-01 14:58 | 48.35051 | 11.77722 | 1466 ft | 0 kts | 263° |
| 2026-05-01 15:23 | 48.35051 | 11.77724 | 1466 ft | 2 kts | 263° |
| 2026-05-01 15:23 | 48.35053 | 11.77762 | 1464 ft | 4 kts | 271° |
| 2026-05-01 15:23 | 48.35050 | 11.77801 | 1459 ft | 4 kts | 289° |
| 2026-05-01 15:24 | 48.35038 | 11.77832 | 1460 ft | 4 kts | 339° |
| 2026-05-01 15:24 | 48.35027 | 11.77836 | 1463 ft | 1 kts | 353° |
| 2026-05-01 15:27 | 48.35036 | 11.77839 | 1460 ft | 5 kts | 13° |
| 2026-05-01 15:28 | 48.35089 | 11.77864 | 1466 ft | 8 kts | 12° |
| 2026-05-01 15:28 | 48.35146 | 11.77857 | 1463 ft | 8 kts | 352° |
| 2026-05-01 15:28 | 48.35200 | 11.77847 | 1466 ft | 12 kts | 353° |
| 2026-05-01 15:29 | 48.35406 | 11.77813 | 1460 ft | 16 kts | 353° |
| 2026-05-01 15:29 | 48.35525 | 11.77792 | 1461 ft | 18 kts | 353° |
| 2026-05-01 15:29 | 48.35785 | 11.77717 | 1462 ft | 20 kts | 340° |
| 2026-05-01 15:30 | 48.35900 | 11.77682 | 1462 ft | 6 kts | 351° |
| 2026-05-01 15:31 | 48.36146 | 11.77709 | 1463 ft | 15 kts | 41° |
| 2026-05-01 15:31 | 48.36268 | 11.77947 | 1462 ft | 10 kts | 53° |
| 2026-05-01 15:32 | 48.36383 | 11.78197 | 1461 ft | 16 kts | 61° |
| 2026-05-01 15:32 | 48.36414 | 11.78525 | 1462 ft | 50 kts | 83° |
| 2026-05-01 15:33 | 48.36752 | 11.82411 | 2366 ft | 150 kts | 83° |
| 2026-05-01 15:34 | 48.38355 | 11.86716 | 3613 ft | 213 kts | 15° |